sensor_id;sensor_type;location;lat;lon;timestamp;pressure;altitude;pressure_sealevel;temperature;humidity
70458;BME280;57919;56.194;95.716;2022-07-29T00:01:45;97822.78;;;19.90;66.42
70458;BME280;57919;56.194;95.716;2022-07-29T00:11:48;97809.09;;;20.20;65.30
70458;BME280;57919;56.194;95.716;2022-07-29T00:21:50;97803.38;;;20.40;64.66
70458;BME280;57919;56.194;95.716;2022-07-29T00:31:52;97799.34;;;20.54;64.58
70458;BME280;57919;56.194;95.716;2022-07-29T00:41:54;97783.34;;;21.05;63.48
70458;BME280;57919;56.194;95.716;2022-07-29T00:51:56;97768.19;;;21.49;62.40
70458;BME280;57919;56.194;95.716;2022-07-29T01:01:58;97775.97;;;21.52;62.37
70458;BME280;57919;56.194;95.716;2022-07-29T01:12:01;97759.63;;;21.85;62.19
70458;BME280;57919;56.194;95.716;2022-07-29T01:32:29;97727.03;;;23.51;58.55
70458;BME280;57919;56.194;95.716;2022-07-29T01:42:38;97725.56;;;24.26;56.99
70458;BME280;57919;56.194;95.716;2022-07-29T01:52:58;97719.63;;;26.55;52.91
70458;BME280;57919;56.194;95.716;2022-07-29T02:03:05;97708.63;;;28.06;49.04
70458;BME280;57919;56.194;95.716;2022-07-29T02:13:11;97709.84;;;27.80;48.68
70458;BME280;57919;56.194;95.716;2022-07-29T02:23:17;97713.50;;;27.55;48.24
70458;BME280;57919;56.194;95.716;2022-07-29T02:33:21;97702.72;;;27.18;48.98
70458;BME280;57919;56.194;95.716;2022-07-29T02:43:25;97706.88;;;27.25;48.41
70458;BME280;57919;56.194;95.716;2022-07-29T02:53:31;97698.56;;;26.90;49.58
70458;BME280;57919;56.194;95.716;2022-07-29T03:03:37;97695.84;;;25.97;51.00
70458;BME280;57919;56.194;95.716;2022-07-29T03:13:39;97692.81;;;25.93;51.27
70458;BME280;57919;56.194;95.716;2022-07-29T03:23:45;97681.03;;;26.33;51.06
70458;BME280;57919;56.194;95.716;2022-07-29T03:33:47;97663.59;;;26.63;50.53
70458;BME280;57919;56.194;95.716;2022-07-29T03:43:49;97658.56;;;26.35;51.32
70458;BME280;57919;56.194;95.716;2022-07-29T03:53:53;97657.66;;;26.19;51.71
70458;BME280;57919;56.194;95.716;2022-07-29T04:03:56;97655.75;;;26.25;51.44
70458;BME280;57919;56.194;95.716;2022-07-29T04:14:00;97645.13;;;25.86;52.37
70458;BME280;57919;56.194;95.716;2022-07-29T04:24:02;97644.03;;;25.97;52.40
70458;BME280;57919;56.194;95.716;2022-07-29T04:34:04;97624.09;;;26.05;52.04
70458;BME280;57919;56.194;95.716;2022-07-29T04:44:06;97615.09;;;27.71;49.70
70458;BME280;57919;56.194;95.716;2022-07-29T04:54:08;97604.06;;;31.10;42.62
70458;BME280;57919;56.194;95.716;2022-07-29T05:04:10;97604.84;;;32.48;40.24
70458;BME280;57919;56.194;95.716;2022-07-29T05:14:12;97589.69;;;34.04;37.39
70458;BME280;57919;56.194;95.716;2022-07-29T05:24:15;97580.25;;;32.09;40.24
70458;BME280;57919;56.194;95.716;2022-07-29T05:34:17;97555.97;;;32.18;40.32
70458;BME280;57919;56.194;95.716;2022-07-29T05:44:20;97543.91;;;30.02;43.92
70458;BME280;57919;56.194;95.716;2022-07-29T05:54:23;97546.03;;;27.44;50.26
70458;BME280;57919;56.194;95.716;2022-07-29T06:04:25;97548.00;;;27.33;50.28
70458;BME280;57919;56.194;95.716;2022-07-29T06:14:27;97541.53;;;27.53;50.05
70458;BME280;57919;56.194;95.716;2022-07-29T06:24:29;97535.44;;;27.46;49.42
70458;BME280;57919;56.194;95.716;2022-07-29T06:34:32;97527.72;;;29.61;45.94
70458;BME280;57919;56.194;95.716;2022-07-29T06:44:34;97522.84;;;29.72;44.97
70458;BME280;57919;56.194;95.716;2022-07-29T06:54:37;97526.03;;;28.65;47.08
70458;BME280;57919;56.194;95.716;2022-07-29T07:04:40;97535.84;;;28.23;47.69
70458;BME280;57919;56.194;95.716;2022-07-29T07:14:42;97518.78;;;27.95;47.40
70458;BME280;57919;56.194;95.716;2022-07-29T07:24:44;97520.00;;;27.25;48.45
70458;BME280;57919;56.194;95.716;2022-07-29T07:34:46;97531.22;;;26.74;48.17
70458;BME280;57919;56.194;95.716;2022-07-29T07:44:48;97537.91;;;26.27;49.46
70458;BME280;57919;56.194;95.716;2022-07-29T07:54:50;97538.16;;;25.85;50.65
70458;BME280;57919;56.194;95.716;2022-07-29T08:04:52;97538.06;;;25.60;50.32
70458;BME280;57919;56.194;95.716;2022-07-29T08:14:55;97521.38;;;25.29;51.09
70458;BME280;57919;56.194;95.716;2022-07-29T08:24:57;97539.59;;;25.20;51.42
70458;BME280;57919;56.194;95.716;2022-07-29T08:34:59;97530.97;;;25.06;52.01
70458;BME280;57919;56.194;95.716;2022-07-29T08:45:03;97515.03;;;24.82;53.13
70458;BME280;57919;56.194;95.716;2022-07-29T08:55:07;97534.06;;;24.73;54.25
70458;BME280;57919;56.194;95.716;2022-07-29T09:05:09;97524.06;;;25.14;53.46
70458;BME280;57919;56.194;95.716;2022-07-29T09:15:12;97531.06;;;25.32;53.47
70458;BME280;57919;56.194;95.716;2022-07-29T09:35:36;97527.06;;;25.70;53.90
70458;BME280;57919;56.194;95.716;2022-07-29T09:45:39;97522.56;;;25.59;54.11
70458;BME280;57919;56.194;95.716;2022-07-29T09:55:48;97526.78;;;25.71;53.62
70458;BME280;57919;56.194;95.716;2022-07-29T10:06:08;97538.16;;;25.85;52.92
70458;BME280;57919;56.194;95.716;2022-07-29T10:16:12;97534.81;;;25.73;53.63
70458;BME280;57919;56.194;95.716;2022-07-29T10:26:15;97540.16;;;25.22;56.12
70458;BME280;57919;56.194;95.716;2022-07-29T10:36:42;97538.13;;;24.60;57.59
70458;BME280;57919;56.194;95.716;2022-07-29T10:46:47;97525.75;;;24.31;58.28
70458;BME280;57919;56.194;95.716;2022-07-29T10:56:49;97520.59;;;24.44;58.27
70458;BME280;57919;56.194;95.716;2022-07-29T11:17:05;97495.91;;;23.69;60.81
70458;BME280;57919;56.194;95.716;2022-07-29T11:47:20;97488.44;;;23.42;62.05
70458;BME280;57919;56.194;95.716;2022-07-29T11:57:22;97481.63;;;23.01;63.31
70458;BME280;57919;56.194;95.716;2022-07-29T12:07:30;97489.16;;;22.67;65.01
70458;BME280;57919;56.194;95.716;2022-07-29T12:17:34;97490.88;;;22.51;65.75
70458;BME280;57919;56.194;95.716;2022-07-29T12:27:37;97480.72;;;22.35;66.36
70458;BME280;57919;56.194;95.716;2022-07-29T12:37:42;97454.19;;;22.12;67.14
70458;BME280;57919;56.194;95.716;2022-07-29T12:47:51;97482.66;;;22.18;67.07
70458;BME280;57919;56.194;95.716;2022-07-29T12:57:53;97520.84;;;21.98;68.76
70458;BME280;57919;56.194;95.716;2022-07-29T13:08:10;97541.56;;;21.15;70.58
70458;BME280;57919;56.194;95.716;2022-07-29T13:18:33;97591.03;;;20.51;71.35
70458;BME280;57919;56.194;95.716;2022-07-29T13:28:37;97580.03;;;19.86;72.67
70458;BME280;57919;56.194;95.716;2022-07-29T13:38:39;97575.47;;;19.50;73.60
70458;BME280;57919;56.194;95.716;2022-07-29T13:48:41;97566.34;;;19.38;73.87
70458;BME280;57919;56.194;95.716;2022-07-29T13:58:43;97566.84;;;19.17;75.39
70458;BME280;57919;56.194;95.716;2022-07-29T14:08:45;97558.94;;;18.90;76.11
70458;BME280;57919;56.194;95.716;2022-07-29T14:18:48;97550.56;;;18.85;76.72
70458;BME280;57919;56.194;95.716;2022-07-29T14:28:49;97545.94;;;18.86;76.72
70458;BME280;57919;56.194;95.716;2022-07-29T14:38:51;97550.97;;;18.89;77.28
70458;BME280;57919;56.194;95.716;2022-07-29T14:48:54;97524.69;;;18.81;77.54
70458;BME280;57919;56.194;95.716;2022-07-29T14:58:56;97543.13;;;18.92;77.89
70458;BME280;57919;56.194;95.716;2022-07-29T15:08:59;97528.94;;;18.95;78.57
70458;BME280;57919;56.194;95.716;2022-07-29T15:19:01;97512.66;;;19.00;78.83
70458;BME280;57919;56.194;95.716;2022-07-29T15:29:03;97491.94;;;19.04;79.00
70458;BME280;57919;56.194;95.716;2022-07-29T15:39:05;97490.25;;;19.03;79.57
70458;BME280;57919;56.194;95.716;2022-07-29T15:49:08;97475.66;;;18.91;79.68
70458;BME280;57919;56.194;95.716;2022-07-29T15:59:10;97484.03;;;18.96;80.16
70458;BME280;57919;56.194;95.716;2022-07-29T16:09:13;97482.97;;;18.97;80.58
70458;BME280;57919;56.194;95.716;2022-07-29T16:19:15;97469.25;;;18.97;80.35
70458;BME280;57919;56.194;95.716;2022-07-29T16:29:17;97466.38;;;18.92;80.67
70458;BME280;57919;56.194;95.716;2022-07-29T16:39:19;97464.47;;;18.93;80.92
70458;BME280;57919;56.194;95.716;2022-07-29T16:49:21;97436.94;;;18.88;80.87
70458;BME280;57919;56.194;95.716;2022-07-29T16:59:23;97449.34;;;18.90;81.21
70458;BME280;57919;56.194;95.716;2022-07-29T17:09:25;97446.59;;;18.90;81.49
70458;BME280;57919;56.194;95.716;2022-07-29T17:19:29;97434.34;;;18.93;81.82
70458;BME280;57919;56.194;95.716;2022-07-29T17:29:31;97428.03;;;18.92;81.95
70458;BME280;57919;56.194;95.716;2022-07-29T17:39:38;97411.56;;;18.92;82.12
70458;BME280;57919;56.194;95.716;2022-07-29T17:49:41;97414.41;;;18.86;82.18
70458;BME280;57919;56.194;95.716;2022-07-29T17:59:43;97410.00;;;18.85;82.36
70458;BME280;57919;56.194;95.716;2022-07-29T18:09:45;97408.94;;;18.86;82.22
70458;BME280;57919;56.194;95.716;2022-07-29T18:19:47;97405.59;;;18.84;82.40
70458;BME280;57919;56.194;95.716;2022-07-29T18:29:49;97406.88;;;18.81;82.69
70458;BME280;57919;56.194;95.716;2022-07-29T18:39:51;97412.50;;;18.86;82.50
70458;BME280;57919;56.194;95.716;2022-07-29T18:49:53;97413.34;;;18.87;82.47
70458;BME280;57919;56.194;95.716;2022-07-29T18:59:55;97409.53;;;18.88;82.57
70458;BME280;57919;56.194;95.716;2022-07-29T19:09:57;97406.56;;;18.89;82.61
70458;BME280;57919;56.194;95.716;2022-07-29T19:19:59;97405.97;;;18.87;82.51
70458;BME280;57919;56.194;95.716;2022-07-29T19:30:00;97401.09;;;18.89;82.43
70458;BME280;57919;56.194;95.716;2022-07-29T19:40:05;97400.72;;;18.86;82.54
70458;BME280;57919;56.194;95.716;2022-07-29T19:50:08;97399.88;;;18.85;83.00
70458;BME280;57919;56.194;95.716;2022-07-29T20:00:11;97402.38;;;18.87;82.91
70458;BME280;57919;56.194;95.716;2022-07-29T20:10:13;97395.59;;;18.89;83.09
70458;BME280;57919;56.194;95.716;2022-07-29T20:20:16;97394.53;;;18.90;83.21
70458;BME280;57919;56.194;95.716;2022-07-29T20:30:18;97383.66;;;18.84;83.30
70458;BME280;57919;56.194;95.716;2022-07-29T20:40:20;97385.09;;;18.86;83.61
70458;BME280;57919;56.194;95.716;2022-07-29T20:50:22;97388.69;;;18.87;83.66
70458;BME280;57919;56.194;95.716;2022-07-29T21:00:25;97392.25;;;18.87;83.72
70458;BME280;57919;56.194;95.716;2022-07-29T21:10:27;97394.16;;;18.87;84.20
70458;BME280;57919;56.194;95.716;2022-07-29T21:20:30;97392.25;;;18.87;84.17
70458;BME280;57919;56.194;95.716;2022-07-29T21:30:32;97388.69;;;18.87;84.13
70458;BME280;57919;56.194;95.716;2022-07-29T21:40:34;97384.75;;;18.83;84.22
70458;BME280;57919;56.194;95.716;2022-07-29T21:50:36;97390.22;;;18.83;84.40
70458;BME280;57919;56.194;95.716;2022-07-29T22:00:38;97397.00;;;18.80;84.28
70458;BME280;57919;56.194;95.716;2022-07-29T22:10:41;97394.88;;;18.82;84.79
70458;BME280;57919;56.194;95.716;2022-07-29T22:20:44;97396.75;;;18.82;84.86
70458;BME280;57919;56.194;95.716;2022-07-29T22:30:45;97397.94;;;18.74;85.18
70458;BME280;57919;56.194;95.716;2022-07-29T22:40:47;97397.31;;;18.72;85.40
70458;BME280;57919;56.194;95.716;2022-07-29T22:50:51;97386.97;;;18.74;85.39
70458;BME280;57919;56.194;95.716;2022-07-29T23:00:53;97384.13;;;18.81;85.46
70458;BME280;57919;56.194;95.716;2022-07-29T23:10:55;97386.31;;;18.90;85.33
70458;BME280;57919;56.194;95.716;2022-07-29T23:20:57;97373.25;;;19.04;85.32
70458;BME280;57919;56.194;95.716;2022-07-29T23:30:59;97369.47;;;19.17;84.83
70458;BME280;57919;56.194;95.716;2022-07-29T23:41:01;97376.03;;;19.27;84.45
70458;BME280;57919;56.194;95.716;2022-07-29T23:51:04;97391.56;;;19.33;84.30
